createdAt,value
2022-11-25T00:01:20.353Z,8.77
2022-11-25T00:03:47.841Z,8.80
2022-11-25T00:06:17.299Z,7.93
2022-11-25T00:08:44.898Z,9.20
2022-11-25T00:11:13.138Z,8.18
2022-11-25T00:13:40.632Z,7.80
2022-11-25T00:16:09.039Z,7.32
2022-11-25T00:18:36.499Z,6.85
2022-11-25T00:21:11.603Z,7.55
2022-11-25T00:23:38.898Z,8.90
2022-11-25T00:26:10.215Z,9.23
2022-11-25T00:28:37.431Z,9.30
2022-11-25T00:31:05.558Z,8.02
2022-11-25T00:33:32.617Z,7.68
2022-11-25T00:36:01.410Z,7.38
2022-11-25T00:38:28.615Z,7.07
2022-11-25T00:41:18.321Z,8.43
2022-11-25T00:44:05.292Z,8.70
2022-11-25T00:46:32.376Z,8.02
2022-11-25T00:48:59.432Z,8.07
2022-11-25T00:51:26.633Z,8.32
2022-11-25T00:53:58.730Z,6.70
2022-11-25T00:56:26.330Z,6.40
2022-11-25T00:58:54.076Z,6.05
2022-11-25T01:01:21.335Z,5.95
2022-11-25T01:03:50.375Z,6.05
2022-11-25T01:06:17.504Z,6.93
2022-11-25T01:08:44.876Z,6.68
2022-11-25T01:11:12.796Z,7.47
2022-11-25T01:13:39.952Z,6.13
2022-11-25T01:16:07.952Z,7.20
2022-11-25T01:18:35.497Z,7.25
2022-11-25T01:21:07.836Z,7.50
2022-11-25T01:23:35.096Z,6.57
2022-11-25T01:26:03.382Z,6.97
2022-11-25T01:28:30.798Z,6.35
2022-11-25T01:31:01.984Z,6.38
2022-11-25T01:33:29.471Z,6.47
2022-11-25T01:35:56.532Z,6.53
2022-11-25T01:38:23.591Z,6.45
2022-11-25T01:40:50.683Z,6.18
2022-11-25T01:43:17.767Z,6.18
2022-11-25T01:45:44.922Z,6.45
2022-11-25T01:48:21.300Z,6.68
2022-11-25T01:50:49.289Z,7.28
2022-11-25T01:53:17.200Z,7.65
2022-11-25T01:55:48.692Z,6.97
2022-11-25T01:58:17.611Z,8.40
2022-11-25T02:00:51.167Z,8.00
2022-11-25T02:03:21.449Z,8.52
2022-11-25T02:05:53.287Z,6.80
2022-11-25T02:08:20.664Z,7.10
2022-11-25T02:10:47.975Z,8.00
2022-11-25T02:13:15.263Z,6.90
2022-11-25T02:15:42.289Z,7.38
2022-11-25T02:18:09.420Z,6.95
2022-11-25T02:20:36.543Z,6.47
2022-11-25T02:23:03.716Z,6.80
2022-11-25T02:25:39.510Z,7.28
2022-11-25T02:28:09.815Z,6.40
2022-11-25T02:30:36.772Z,6.65
2022-11-25T02:33:03.839Z,6.28
2022-11-25T02:35:33.092Z,6.70
2022-11-25T02:38:04.100Z,6.77
2022-11-25T02:40:31.227Z,6.80
2022-11-25T02:42:59.663Z,6.93
2022-11-25T02:45:33.696Z,8.73
2022-11-25T02:48:00.819Z,9.20
2022-11-25T02:50:27.871Z,7.90
2022-11-25T02:52:54.907Z,7.85
2022-11-25T02:55:21.987Z,7.10
2022-11-25T02:57:49.028Z,7.20
2022-11-25T03:00:16.501Z,8.23
2022-11-25T03:02:43.572Z,6.43
2022-11-25T03:05:11.047Z,7.30
2022-11-25T03:07:38.124Z,6.57
2022-11-25T03:10:05.591Z,6.53
2022-11-25T03:12:32.703Z,5.65
2022-11-25T03:14:59.771Z,6.50
2022-11-25T03:17:26.852Z,5.75
2022-11-25T03:19:53.916Z,6.13
2022-11-25T03:22:20.958Z,5.88
2022-11-25T03:24:48.020Z,6.13
2022-11-25T03:27:15.037Z,5.40
2022-11-25T03:29:41.911Z,6.05
2022-11-25T03:32:09.810Z,6.57
2022-11-25T03:34:37.453Z,6.47
2022-11-25T03:37:04.771Z,6.15
2022-11-25T03:39:31.931Z,6.85
2022-11-25T03:41:58.971Z,8.30
2022-11-25T03:44:26.130Z,7.43
2022-11-25T03:46:53.243Z,6.10
2022-11-25T03:49:21.763Z,6.18
2022-11-25T03:51:49.413Z,6.32
2022-11-25T03:54:16.446Z,6.60
2022-11-25T03:56:43.492Z,6.18
2022-11-25T03:59:10.121Z,6.30
2022-11-25T04:01:42.807Z,6.45
2022-11-25T04:04:11.221Z,7.22
2022-11-25T04:06:39.322Z,7.28
2022-11-25T04:09:07.160Z,6.63
2022-11-25T04:11:54.124Z,5.90
2022-11-25T04:14:21.216Z,5.85
2022-11-25T04:16:48.367Z,6.15
2022-11-25T04:19:15.534Z,6.05
2022-11-25T04:21:43.136Z,5.55
2022-11-25T04:24:11.986Z,5.88
2022-11-25T04:26:39.074Z,14.50
2022-11-25T04:29:05.730Z,9.87
2022-11-25T04:31:32.858Z,8.13
2022-11-25T04:33:59.935Z,7.03
2022-11-25T04:36:26.973Z,5.50
2022-11-25T04:38:54.047Z,6.30
2022-11-25T04:41:21.109Z,5.40
2022-11-25T04:43:48.650Z,5.55
2022-11-25T04:46:18.274Z,5.10
2022-11-25T04:48:45.441Z,5.00
2022-11-25T04:51:12.504Z,5.32
2022-11-25T04:53:39.730Z,6.20
2022-11-25T04:56:06.938Z,6.40
2022-11-25T04:58:53.921Z,6.50
2022-11-25T05:01:21.017Z,6.20
2022-11-25T05:03:55.964Z,6.10
2022-11-25T05:06:24.361Z,6.10
2022-11-25T05:08:51.696Z,5.93
2022-11-25T05:11:18.777Z,6.33
2022-11-25T05:13:45.801Z,6.63
2022-11-25T05:16:13.005Z,7.07
2022-11-25T05:18:40.116Z,7.13
2022-11-25T05:21:07.481Z,7.70
2022-11-25T05:23:34.512Z,7.15
2022-11-25T05:26:02.017Z,7.30
2022-11-25T05:28:29.549Z,7.40
2022-11-25T05:30:56.678Z,7.55
2022-11-25T05:33:24.145Z,7.13
2022-11-25T05:35:55.221Z,7.07
2022-11-25T05:38:22.309Z,7.60
2022-11-25T05:40:49.392Z,7.50
2022-11-25T05:43:16.501Z,6.78
2022-11-25T05:45:43.599Z,7.18
2022-11-25T05:48:10.822Z,7.10
2022-11-25T05:50:38.716Z,7.30
2022-11-25T05:53:06.254Z,7.22
2022-11-25T05:55:33.276Z,7.30
2022-11-25T05:58:00.407Z,7.90
2022-11-25T06:00:27.981Z,7.25
2022-11-25T06:02:55.143Z,9.30
2022-11-25T06:05:22.311Z,12.90
2022-11-25T06:07:49.496Z,10.68
2022-11-25T06:10:18.068Z,10.90
2022-11-25T06:12:45.088Z,11.27
2022-11-25T06:15:12.341Z,10.98
2022-11-25T06:17:39.036Z,10.13
2022-11-25T06:20:07.937Z,11.38
2022-11-25T06:22:35.033Z,13.35
2022-11-25T06:25:03.793Z,14.80
2022-11-25T06:27:49.981Z,12.18
2022-11-25T06:30:19.063Z,12.10
2022-11-25T06:32:46.222Z,9.83
2022-11-25T06:35:13.347Z,8.43
2022-11-25T06:37:41.633Z,8.10
2022-11-25T06:40:08.961Z,8.20
2022-11-25T06:42:38.074Z,7.90
2022-11-25T06:45:05.698Z,7.95
2022-11-25T06:47:32.912Z,14.32
2022-11-25T06:50:00.047Z,21.27
2022-11-25T06:52:27.164Z,18.50
2022-11-25T06:54:54.206Z,18.83
2022-11-25T06:57:21.252Z,19.50
2022-11-25T06:59:48.326Z,39.05
2022-11-25T07:02:15.605Z,22.52
2022-11-25T07:04:42.725Z,15.77
2022-11-25T07:07:09.899Z,13.23
2022-11-25T07:09:37.000Z,15.32
2022-11-25T07:12:05.821Z,14.30
2022-11-25T07:14:32.818Z,11.57
2022-11-25T07:16:59.879Z,10.25
2022-11-25T07:19:26.883Z,10.32
2022-11-25T07:21:53.950Z,10.82
2022-11-25T07:24:21.018Z,9.65
2022-11-25T07:26:48.087Z,7.95
2022-11-25T07:29:50.444Z,7.50
2022-11-25T07:32:09.972Z,8.75
2022-11-25T07:34:37.516Z,8.55
2022-11-25T07:37:04.626Z,9.00
2022-11-25T07:39:31.702Z,8.85
2022-11-25T07:41:58.731Z,8.57
2022-11-25T07:44:25.818Z,12.13
2022-11-25T07:46:53.147Z,9.50
2022-11-25T07:49:21.615Z,9.18
2022-11-25T07:51:48.649Z,9.60
2022-11-25T07:54:15.967Z,12.10
2022-11-25T07:56:46.861Z,15.38
2022-11-25T07:59:16.037Z,13.77
2022-11-25T08:01:42.931Z,13.50
2022-11-25T08:04:13.812Z,11.55
2022-11-25T08:06:46.323Z,10.63
2022-11-25T08:09:15.275Z,9.40
2022-11-25T08:11:42.917Z,9.35
2022-11-25T08:14:10.298Z,10.07
2022-11-25T08:16:37.394Z,11.45
2022-11-25T08:19:05.917Z,11.63
2022-11-25T08:21:33.283Z,11.20
2022-11-25T08:24:02.923Z,13.43
2022-11-25T08:26:31.356Z,14.07
2022-11-25T08:28:58.870Z,14.52
2022-11-25T08:31:27.792Z,11.33
2022-11-25T08:33:55.681Z,11.27
2022-11-25T08:36:23.111Z,11.10
2022-11-25T08:38:51.823Z,11.77
2022-11-25T08:41:20.786Z,13.40
2022-11-25T08:43:47.863Z,14.68
2022-11-25T08:46:16.134Z,13.98
2022-11-25T08:48:43.180Z,12.82
2022-11-25T08:51:11.591Z,11.52
2022-11-25T08:53:38.790Z,10.57
2022-11-25T08:56:06.211Z,11.38
2022-11-25T08:58:33.918Z,10.85
2022-11-25T09:01:01.218Z,11.07
2022-11-25T09:03:28.765Z,12.27
2022-11-25T09:05:55.911Z,12.27
2022-11-25T09:08:23.202Z,11.38
2022-11-25T09:10:51.805Z,11.07
2022-11-25T09:13:18.939Z,10.25
2022-11-25T09:15:46.100Z,9.65
2022-11-25T09:18:14.229Z,8.50
2022-11-25T09:20:41.489Z,7.85
2022-11-25T09:23:09.270Z,8.13
2022-11-25T09:25:36.843Z,8.35
2022-11-25T09:28:04.133Z,7.60
2022-11-25T09:30:31.663Z,7.93
2022-11-25T09:33:00.054Z,7.97
2022-11-25T09:35:27.312Z,8.20
2022-11-25T09:37:54.403Z,8.77
2022-11-25T09:40:31.266Z,9.90
2022-11-25T09:43:19.255Z,8.10
2022-11-25T09:46:12.015Z,7.60
2022-11-25T09:48:59.470Z,7.57
2022-11-25T09:51:34.450Z,8.50
2022-11-25T09:54:11.590Z,8.23
2022-11-25T09:56:42.635Z,6.95
2022-11-25T09:59:13.002Z,6.95
2022-11-25T10:01:45.636Z,6.70
2022-11-25T10:04:18.273Z,6.50
2022-11-25T10:06:54.898Z,5.63
2022-11-25T10:09:24.796Z,5.67
2022-11-25T10:11:53.406Z,6.03
2022-11-25T10:14:30.711Z,5.20
2022-11-25T10:17:01.507Z,5.88
2022-11-25T10:19:48.518Z,5.30
2022-11-25T10:22:32.590Z,5.68
2022-11-25T10:25:02.398Z,4.80
2022-11-25T10:27:37.400Z,4.57
2022-11-25T10:30:08.673Z,4.35
2022-11-25T10:32:41.152Z,4.00
2022-11-25T10:35:15.117Z,4.13
2022-11-25T10:37:44.904Z,3.93
2022-11-25T10:40:17.012Z,4.88
2022-11-25T10:42:43.780Z,4.80
2022-11-25T10:45:11.426Z,4.38
2022-11-25T10:47:38.686Z,5.50
2022-11-25T10:50:25.730Z,4.70
2022-11-25T10:52:56.088Z,4.90
2022-11-25T10:55:25.672Z,4.70
2022-11-25T10:57:53.653Z,4.65
2022-11-25T11:00:37.788Z,5.10
2022-11-25T11:03:24.805Z,5.28
2022-11-25T11:05:53.173Z,5.47
2022-11-25T11:08:22.925Z,5.47
2022-11-25T11:11:10.008Z,5.07
2022-11-25T11:13:37.065Z,5.28
2022-11-25T11:16:04.523Z,5.65
2022-11-25T11:18:39.171Z,5.18
2022-11-25T11:21:07.612Z,4.40
2022-11-25T11:23:48.846Z,4.13
2022-11-25T11:26:32.844Z,4.25
2022-11-25T11:28:59.875Z,4.00
2022-11-25T11:31:32.113Z,3.80
2022-11-25T11:34:12.301Z,3.47
2022-11-25T11:36:43.620Z,3.38
2022-11-25T11:39:18.126Z,3.50
2022-11-25T11:41:45.093Z,3.50
2022-11-25T11:44:13.168Z,3.45
2022-11-25T11:46:49.691Z,3.42
2022-11-25T11:49:36.696Z,3.80
2022-11-25T11:52:11.944Z,3.92
2022-11-25T11:54:47.290Z,3.83
2022-11-25T11:57:17.604Z,3.42
2022-11-25T11:59:53.424Z,3.10
2022-11-25T12:02:40.769Z,3.45
2022-11-25T12:05:11.186Z,3.13
2022-11-25T12:07:43.856Z,3.53
2022-11-25T12:10:24.730Z,4.10
2022-11-25T12:13:11.724Z,4.57
2022-11-25T12:15:39.978Z,4.80
2022-11-25T12:18:20.055Z,4.20
2022-11-25T12:20:47.085Z,4.40
2022-11-25T12:23:19.373Z,4.43
2022-11-25T12:25:56.716Z,4.32
2022-11-25T12:28:31.745Z,5.18
2022-11-25T12:31:14.697Z,4.47
2022-11-25T12:33:54.252Z,4.72
2022-11-25T12:36:27.320Z,4.35
2022-11-25T12:38:56.860Z,4.93
2022-11-25T12:41:43.831Z,4.70
2022-11-25T12:44:30.860Z,4.68
2022-11-25T12:46:58.772Z,4.43
2022-11-25T12:49:25.803Z,4.60
2022-11-25T12:51:52.853Z,5.90
2022-11-25T12:54:39.840Z,4.80
2022-11-25T12:57:06.851Z,4.60
2022-11-25T12:59:34.913Z,5.53
2022-11-25T13:02:15.053Z,8.65
2022-11-25T13:04:53.632Z,4.97
2022-11-25T13:07:30.246Z,4.30
2022-11-25T13:10:07.287Z,4.00
2022-11-25T13:12:48.889Z,3.42
2022-11-25T13:15:33.753Z,3.72
2022-11-25T13:18:03.835Z,6.30
2022-11-25T13:20:30.952Z,5.90
2022-11-25T13:23:02.475Z,7.50
2022-11-25T13:25:29.983Z,5.50
2022-11-25T13:27:58.472Z,6.55
2022-11-25T13:30:32.851Z,5.50
2022-11-25T13:33:15.433Z,5.60
2022-11-25T13:35:48.756Z,5.95
2022-11-25T13:38:31.346Z,6.00
2022-11-25T13:41:00.186Z,5.90
2022-11-25T13:43:27.348Z,8.93
2022-11-25T13:45:54.684Z,9.05
2022-11-25T13:48:30.267Z,8.10
2022-11-25T13:51:14.926Z,8.23
2022-11-25T13:53:42.099Z,8.33
2022-11-25T13:56:13.864Z,7.90
2022-11-25T13:58:40.906Z,8.85
2022-11-25T14:01:24.880Z,9.27
2022-11-25T14:03:57.992Z,9.55
2022-11-25T14:06:30.776Z,7.63
2022-11-25T14:09:01.057Z,8.18
2022-11-25T14:11:34.767Z,8.13
2022-11-25T14:14:21.748Z,7.73
2022-11-25T14:16:58.830Z,7.32
2022-11-25T14:19:53.123Z,7.35
2022-11-25T14:22:20.239Z,7.78
2022-11-25T14:24:50.500Z,7.55
2022-11-25T14:27:21.363Z,8.65
2022-11-25T14:29:53.188Z,7.97
2022-11-25T14:32:27.631Z,7.72
2022-11-25T14:34:54.592Z,5.97
2022-11-25T14:37:26.911Z,6.25
2022-11-25T14:40:00.332Z,5.90
2022-11-25T14:42:32.501Z,5.70
2022-11-25T14:44:59.537Z,5.50
2022-11-25T14:47:27.937Z,5.47
2022-11-25T14:50:18.823Z,5.38
2022-11-25T14:52:44.125Z,5.65
2022-11-25T14:55:11.568Z,5.80
2022-11-25T14:57:41.564Z,5.80
2022-11-25T15:00:10.538Z,6.25
2022-11-25T15:02:40.672Z,6.70
2022-11-25T15:05:08.781Z,8.27
2022-11-25T15:07:35.914Z,9.05
2022-11-25T15:10:03.057Z,9.38
2022-11-25T15:12:32.510Z,11.27
2022-11-25T15:15:00.307Z,9.02
2022-11-25T15:17:29.466Z,8.70
2022-11-25T15:19:58.167Z,10.60
2022-11-25T15:22:25.564Z,13.40
2022-11-25T15:24:56.063Z,16.40
2022-11-25T15:27:26.833Z,18.27
2022-11-25T15:29:54.829Z,16.40
2022-11-25T15:32:30.734Z,12.43
2022-11-25T15:34:59.030Z,10.52
2022-11-25T15:37:26.242Z,11.05
2022-11-25T15:40:13.223Z,11.20
2022-11-25T15:42:42.674Z,11.48
2022-11-25T15:45:11.857Z,11.65
2022-11-25T15:47:39.011Z,11.77
2022-11-25T15:50:07.761Z,11.20
2022-11-25T15:52:36.959Z,10.38
2022-11-25T15:55:06.173Z,9.45
2022-11-25T15:57:36.488Z,9.85
2022-11-25T16:00:13.998Z,10.65
2022-11-25T16:02:42.133Z,12.13
2022-11-25T16:05:17.864Z,13.25
2022-11-25T16:07:52.567Z,13.00
2022-11-25T16:10:19.752Z,11.98
2022-11-25T16:13:06.845Z,12.10
2022-11-25T16:15:53.409Z,12.43
2022-11-25T16:18:39.837Z,10.00
2022-11-25T16:21:10.874Z,15.20
2022-11-25T16:23:39.240Z,14.23
2022-11-25T16:26:13.782Z,13.98
2022-11-25T16:28:42.381Z,9.43
2022-11-25T16:31:13.834Z,8.67
2022-11-25T16:33:40.959Z,9.13
2022-11-25T16:36:09.696Z,11.13
2022-11-25T16:38:36.933Z,14.35
2022-11-25T16:41:12.322Z,16.48
2022-11-25T16:43:40.108Z,16.77
2022-11-25T16:46:07.548Z,16.38
2022-11-25T16:48:34.721Z,17.85
2022-11-25T16:51:01.841Z,18.23
2022-11-25T16:53:28.865Z,20.67
2022-11-25T16:55:56.377Z,17.95
2022-11-25T16:58:24.555Z,17.17
2022-11-25T17:00:53.157Z,15.32
2022-11-25T17:03:21.897Z,13.60
2022-11-25T17:05:49.057Z,14.80
2022-11-25T17:08:16.241Z,17.38
2022-11-25T17:10:44.023Z,20.77
2022-11-25T17:13:16.960Z,24.85
2022-11-25T17:15:44.754Z,19.63
2022-11-25T17:18:14.279Z,15.30
2022-11-25T17:20:41.381Z,13.65
2022-11-25T17:23:13.217Z,12.75
2022-11-25T17:25:40.562Z,11.57
2022-11-25T17:28:07.749Z,12.27
2022-11-25T17:30:34.953Z,12.33
2022-11-25T17:33:04.308Z,11.97
2022-11-25T17:35:31.505Z,16.23
2022-11-25T17:37:59.732Z,22.15
2022-11-25T17:40:27.109Z,24.90
2022-11-25T17:42:54.179Z,13.23
2022-11-25T17:45:22.402Z,12.35
2022-11-25T17:47:49.746Z,12.82
2022-11-25T17:50:18.518Z,12.48
2022-11-25T17:52:45.677Z,13.73
2022-11-25T17:55:13.041Z,14.07
2022-11-25T17:57:40.652Z,16.37
2022-11-25T18:00:12.140Z,12.75
2022-11-25T18:02:39.797Z,13.55
2022-11-25T18:05:15.672Z,16.40
2022-11-25T18:07:44.183Z,16.90
2022-11-25T18:10:12.424Z,16.75
2022-11-25T18:12:39.892Z,13.93
2022-11-25T18:15:08.315Z,14.45
2022-11-25T18:17:36.714Z,11.10
2022-11-25T18:20:14.851Z,12.17
2022-11-25T18:22:45.456Z,11.00
2022-11-25T18:25:14.984Z,14.32
2022-11-25T18:27:42.113Z,13.48
2022-11-25T18:30:20.570Z,14.00
2022-11-25T18:32:48.134Z,15.15
2022-11-25T18:35:16.474Z,14.63
2022-11-25T18:37:43.624Z,15.52
2022-11-25T18:40:10.877Z,15.70
2022-11-25T18:42:38.264Z,16.30
2022-11-25T18:45:05.700Z,14.32
2022-11-25T18:47:32.753Z,11.63
2022-11-25T18:49:59.801Z,10.63
2022-11-25T18:52:26.864Z,9.45
2022-11-25T18:54:53.980Z,8.88
2022-11-25T18:57:21.301Z,8.98
2022-11-25T19:00:00.230Z,11.13
2022-11-25T19:02:35.666Z,10.93
2022-11-25T19:05:03.184Z,9.68
2022-11-25T19:07:30.315Z,11.23
2022-11-25T19:09:57.409Z,12.55
2022-11-25T19:12:24.751Z,11.27
2022-11-25T19:14:52.592Z,14.82
2022-11-25T19:17:21.250Z,19.88
2022-11-25T19:19:48.425Z,21.07
2022-11-25T19:22:17.656Z,21.33
2022-11-25T19:24:45.977Z,22.00
2022-11-25T19:27:16.639Z,20.17
2022-11-25T19:29:44.175Z,14.43
2022-11-25T19:32:18.287Z,15.50
2022-11-25T19:34:46.909Z,13.95
2022-11-25T19:37:16.959Z,11.88
2022-11-25T19:39:44.008Z,11.50
2022-11-25T19:42:11.066Z,9.85
2022-11-25T19:44:38.390Z,16.30
2022-11-25T19:47:15.088Z,14.70
2022-11-25T19:49:42.664Z,15.38
2022-11-25T19:52:16.432Z,14.40
2022-11-25T19:54:43.559Z,14.88
2022-11-25T19:57:19.817Z,20.85
2022-11-25T19:59:46.949Z,19.00
2022-11-25T20:02:15.544Z,17.92
2022-11-25T20:04:43.760Z,15.77
2022-11-25T20:07:11.895Z,15.73
2022-11-25T20:09:39.713Z,15.80
2022-11-25T20:12:16.117Z,14.60
2022-11-25T20:14:43.176Z,15.40
2022-11-25T20:17:12.184Z,18.03
2022-11-25T20:19:39.520Z,21.77
2022-11-25T20:22:06.656Z,26.83
2022-11-25T20:24:33.824Z,20.77
2022-11-25T20:27:00.937Z,17.63
2022-11-25T20:29:30.609Z,13.40
2022-11-25T20:31:58.065Z,11.98
2022-11-25T20:34:25.340Z,13.05
2022-11-25T20:36:52.458Z,13.93
2022-11-25T20:39:20.019Z,11.55
2022-11-25T20:41:48.476Z,10.70
2022-11-25T20:44:15.613Z,9.38
2022-11-25T20:46:42.652Z,9.57
2022-11-25T20:49:19.764Z,9.82
2022-11-25T20:51:46.862Z,11.07
2022-11-25T20:54:14.409Z,11.20
2022-11-25T20:56:41.468Z,11.23
2022-11-25T20:59:18.908Z,11.60
2022-11-25T21:01:46.108Z,10.77
2022-11-25T21:04:13.352Z,12.40
2022-11-25T21:06:41.276Z,13.00
2022-11-25T21:09:11.627Z,13.93
2022-11-25T21:11:38.687Z,13.88
2022-11-25T21:14:06.952Z,15.55
2022-11-25T21:16:34.069Z,16.63
2022-11-25T21:19:01.144Z,18.50
2022-11-25T21:21:30.816Z,22.15
2022-11-25T21:23:58.554Z,20.60
2022-11-25T21:26:26.738Z,20.77
2022-11-25T21:28:55.027Z,19.83
2022-11-25T21:31:23.530Z,20.08
2022-11-25T21:33:51.047Z,21.27
2022-11-25T21:36:20.859Z,24.63
2022-11-25T21:38:50.155Z,20.45
2022-11-25T21:41:17.247Z,20.08
2022-11-25T21:43:46.956Z,20.63
2022-11-25T21:46:17.576Z,19.50
2022-11-25T21:48:44.361Z,18.88
2022-11-25T21:51:12.757Z,16.00
2022-11-25T21:53:39.889Z,17.20
2022-11-25T21:56:16.888Z,16.98
2022-11-25T21:58:44.444Z,17.63
2022-11-25T22:01:11.950Z,14.68
2022-11-25T22:03:39.095Z,13.67
2022-11-25T22:06:20.633Z,14.45
2022-11-25T22:08:47.727Z,14.48
2022-11-25T22:11:16.083Z,14.67
2022-11-25T22:13:43.787Z,14.25
2022-11-25T22:16:16.049Z,14.57
2022-11-25T22:18:43.771Z,13.93
2022-11-25T22:21:12.630Z,13.35
2022-11-25T22:23:39.768Z,12.70
2022-11-25T22:26:07.477Z,11.63
2022-11-25T22:28:35.580Z,11.77
2022-11-25T22:31:05.275Z,12.05
2022-11-25T22:33:34.672Z,14.45
2022-11-25T22:36:02.286Z,14.90
2022-11-25T22:38:29.868Z,13.00
2022-11-25T22:41:03.060Z,12.30
2022-11-25T22:43:32.032Z,12.40
2022-11-25T22:45:59.294Z,11.85
2022-11-25T22:48:31.177Z,11.85
2022-11-25T22:50:58.635Z,10.80
2022-11-25T22:53:26.162Z,10.48
2022-11-25T22:55:57.924Z,10.35
2022-11-25T22:58:25.896Z,10.20
2022-11-25T23:00:53.646Z,9.75
2022-11-25T23:03:22.324Z,12.40
2022-11-25T23:05:50.241Z,11.93
2022-11-25T23:08:17.392Z,12.35
2022-11-25T23:10:44.829Z,14.15
2022-11-25T23:13:12.322Z,16.60
2022-11-25T23:15:41.169Z,15.60
2022-11-25T23:18:12.876Z,15.70
2022-11-25T23:20:40.435Z,15.98
2022-11-25T23:23:16.437Z,16.17
2022-11-25T23:25:43.719Z,16.73
2022-11-25T23:28:10.944Z,19.83
2022-11-25T23:30:38.287Z,22.00
2022-11-25T23:33:11.728Z,16.88
2022-11-25T23:35:39.320Z,15.23
2022-11-25T23:38:07.564Z,14.18
2022-11-25T23:40:34.629Z,14.60
2022-11-25T23:43:02.998Z,13.82
2022-11-25T23:45:30.135Z,13.98
2022-11-25T23:47:57.340Z,14.13
2022-11-25T23:50:29.659Z,11.68
2022-11-25T23:53:01.750Z,12.63
2022-11-25T23:55:31.229Z,12.90
2022-11-25T23:57:58.469Z,13.93
